KOPF/OPF METAR and TAF weather

Enter ICAO airport designator
Station Type Date Time Source
KOPF METAR 2019/10/15 20:53 UTC NOAA

KOPF 152053Z 14010KT 10SM SCT030 BKN042 29/22 A2997 RMK AO2 SLP148 T02940222 56015


Station Type Date Time Source
KOPF Decoded METAR 2019/10/15 20:53 UTC NOAA

MIAMI OPA LOCKA AIRPORT, FL, United States (KOPF) 25-54N 80-17W 16M
Oct 15, 2019 - 04:53 PM EDT / 2019.10.15 2053 UTC
Wind: from the SE (140 degrees) at 12 MPH (10 KT):0
Visibility: 10 mile(s):0
Sky conditions: mostly cloudy
Temperature: 84.9 F (29.4 C)
Dew Point: 72.0 F (22.2 C)
Relative Humidity: 65%
Pressure (altimeter): 29.97 in. Hg (1014 hPa)
Pressure tendency: 0.04 inches (1.5 hPa) lower than three hours ago
ob: KOPF 152053Z 14010KT 10SM SCT030 BKN042 29/22 A2997 RMK AO2 SLP148 T02940222 56015
cycle: 21

Station Type Date Time Source
KOPF TAF 2019/10/15 21:57 UTC NOAA

TAF
AMD KOPF 152054Z 1521/1618 12010KT P6SM SCT030
FM160300 VRB05KT P6SM FEW035 FEW200
FM161400 20007KT P6SM SCT025 BKN050

Example: see airport list